• Join FlightAware (Why Join?)
  • Login
  • US Flag 
03:08AM EST


 

Airport Tracker/Info


-or-


 

Live Flight TrackerFlight Track Log ✈ JIA2328 ✈ 10-May-2013 ✈ KCLT - KOAJ

Flight Track Log - Related Links

Times and Time Zones

All times are in EDT time to prevent confusion due to time zone crossing. See the JIA2328 flight status page for this flight to view local times or setup timezone preferences in your user account.

Time Position Orientation Groundspeed Altitude Reporting Facility
EDT Latitude Longitude Course Direction KTS MPH feet Rate Location/Type
06:02PM 35.1928 -80.9331 106° East 162 186 1,600  Level Atlanta Center
06:03PM 35.1553 -80.9294 175° South 193 222 3,000 2,400 Climbing Atlanta Center
06:04PM 35.1153 -80.8419 119° Southeast 295 339 6,000 2,820 Climbing Atlanta Center
06:05PM 35.1000 -80.6332 109° East  Level FlightAware Approximate
06:05PM 35.0936 -80.7286 103° East 316 364 9,600  Level Atlanta Center
06:06PM 35.0667 -80.5112 90° East  Level FlightAware Approximate
06:06PM 35.0764 -80.6381 103° East 318 366 11,600  Level Atlanta Center
06:07PM 35.0399 -80.3870 106° East  Level FlightAware Approximate
06:09PM 35.0261 -80.3603 102° East 333 383 17,000  Level Washington Center
06:10PM 35.0058 -80.2375 101° East 351 404 18,600 960 Climbing Washington Center
06:11PM 34.9792 -80.1142 105° East 370 426 19,000 180 Climbing Washington Center
06:12PM 34.9519 -80.0089 107° East 370 426 19,000  Level Washington Center
06:13PM 34.9375 -79.8864 98° East 364 419 19,000  Level Washington Center
06:14PM 34.9442 -79.7625 86° East 358 412 19,000  Level Washington Center
06:15PM 34.9483 -79.6361 88° East 358 412 19,000  Level Washington Center
06:16PM 34.9544 -79.5147 86° East 358 412 19,000  Level Washington Center
06:17PM 34.9606 -79.3908 87° East 363 418 19,000  Level Washington Center
06:18PM 34.9667 -79.2694 86° East 363 418 19,000  Level Washington Center
06:19PM 34.9725 -79.1456 87° East 363 418 19,000  Level Washington Center
06:20PM 34.9761 -79.0214 88° East 363 418 19,000  Level Washington Center
06:21PM 34.9836 -78.9003 86° East 363 418 19,000  Level Washington Center
06:22PM 34.9722 -78.7781 96° East 363 418 19,000 -360 Level Washington Center
06:23PM 34.9567 -78.6583 99° East 363 418 18,300 -1,260 Descending Washington Center
06:24PM 34.9431 -78.5414 98° East 363 418 16,600 -1,680 Descending Washington Center
06:25PM 34.9289 -78.4319 99° East 345 397 15,000 -1,560 Descending Washington Center
06:26PM 34.9169 -78.3225 98° East 334 384 13,500 -1,500 Descending Washington Center
06:27PM 34.9047 -78.2158 98° East 323 372 12,000 -1,860 Descending Washington Center
06:28PM 34.8900 -78.1139 100° East 315 362 9,900 -2,040 Descending Washington Center
06:29PM 34.8797 -78.0150 97° East 303 349 8,000 -1,980 Descending Washington Center
06:30PM 34.8689 -77.9211 98° East 292 336 6,000 -1,980 Descending Washington Center
06:31PM 34.8561 -77.8294 100° East 287 330 4,200 -1,440 Descending Washington Center
06:32PM 34.8453 -77.7431 99° East 267 307 3,200 -1,020 Descending Washington Center
06:33PM 34.8342 -77.6644 100° East 229 264 2,200 -1,020 Descending Washington Center